Time;durP1;ratioP1;P1;durP2;ratioP2;P2;SDS_P1;SDS_P2;PMS_P1;PMS_P2;Temp;Humidity;BMP_temperature;BMP_pressure;BME280_temperature;BME280_humidity;BME280_pressure;Samples;Min_cycle;Max_cycle;Signal;HPM_P1;HPM_P2
2021/06/28 00:02:14;;;;;;;8.07;3.70;;;12.30;99.90;;;;;;5068672;28;20191;-70
2021/06/28 00:04:42;;;;;;;5.63;3.40;;;12.40;99.90;;;;;;5068566;28;20232;-69
2021/06/28 00:07:09;;;;;;;10.10;3.80;;;12.60;99.90;;;;;;5071829;28;20274;-71
2021/06/28 00:09:37;;;;;;;6.70;3.40;;;12.70;99.90;;;;;;5072342;28;20533;-70
2021/06/28 00:12:05;;;;;;;7.77;3.93;;;12.90;99.90;;;;;;5074003;28;20171;-70
2021/06/28 00:14:32;;;;;;;12.50;3.77;;;13.10;99.90;;;;;;5074754;28;20218;-71
2021/06/28 00:17:00;;;;;;;6.20;3.30;;;13.20;99.90;;;;;;5073124;28;20263;-69
2021/06/28 00:19:27;;;;;;;6.67;3.60;;;13.30;99.90;;;;;;5074867;28;20182;-70
2021/06/28 00:21:54;;;;;;;13.90;3.40;;;13.40;99.90;;;;;;5075225;28;20542;-70
2021/06/28 00:24:22;;;;;;;10.07;3.57;;;13.50;99.90;;;;;;5074553;28;20203;-68
2021/06/28 00:26:49;;;;;;;10.37;3.37;;;13.70;99.90;;;;;;5074722;28;20649;-72
2021/06/28 00:29:16;;;;;;;9.33;3.80;;;13.60;99.90;;;;;;5075085;28;20180;-71
2021/06/28 00:31:46;;;;;;;6.67;3.43;;;13.60;99.90;;;;;;5074804;28;20208;-69
2021/06/28 00:34:13;;;;;;;13.83;2.93;;;13.70;99.90;;;;;;5074928;28;20744;-69
2021/06/28 00:36:41;;;;;;;7.40;3.17;;;13.90;99.90;;;;;;5074546;28;20179;-74
2021/06/28 00:39:08;;;;;;;5.80;3.03;;;14.10;99.90;;;;;;5075121;28;20206;-71
2021/06/28 00:41:35;;;;;;;6.60;2.80;;;14.40;99.90;;;;;;5075040;28;20207;-66
2021/06/28 00:44:03;;;;;;;6.37;3.20;;;14.60;99.90;;;;;;5073975;28;20782;-70
2021/06/28 00:46:30;;;;;;;10.77;3.13;;;14.60;99.90;;;;;;5074400;28;20175;-68
2021/06/28 00:48:58;;;;;;;9.07;3.17;;;14.50;99.90;;;;;;5074384;28;20222;-70
2021/06/28 00:51:26;;;;;;;8.03;3.30;;;14.20;99.90;;;;;;5073634;28;20183;-69
2021/06/28 00:53:53;;;;;;;7.80;3.13;;;14.10;99.90;;;;;;5054882;28;20192;-68
2021/06/28 00:56:21;;;;;;;10.07;3.77;;;14.10;99.90;;;;;;5066483;28;20629;-70
2021/06/28 00:58:49;;;;;;;8.17;3.07;;;13.90;99.90;;;;;;5073523;28;20304;-70
2021/06/28 01:01:16;;;;;;;9.60;3.67;;;14.00;99.90;;;;;;5060728;28;20241;-71
2021/06/28 01:03:43;;;;;;;8.60;3.80;;;14.00;99.90;;;;;;5074378;28;20260;-70
2021/06/28 01:06:11;;;;;;;9.90;4.00;;;14.00;99.90;;;;;;5066303;28;20272;-68
2021/06/28 01:08:39;;;;;;;11.13;4.43;;;13.90;99.90;;;;;;5063803;28;20164;-69
2021/06/28 01:11:07;;;;;;;9.47;4.47;;;13.70;99.90;;;;;;5073827;28;20183;-69
2021/06/28 01:13:39;;;;;;;9.90;3.93;;;13.70;99.90;;;;;;5074098;28;20202;-69
2021/06/28 01:16:07;;;;;;;13.57;4.77;;;13.60;99.90;;;;;;5073204;28;20179;-68
2021/06/28 01:18:35;;;;;;;12.13;4.67;;;13.40;99.90;;;;;;5071924;28;20183;-68
2021/06/28 01:21:03;;;;;;;15.47;4.57;;;13.30;99.90;;;;;;5074405;28;20630;-69
2021/06/28 01:23:32;;;;;;;17.03;4.90;;;13.20;99.90;;;;;;5074093;28;20211;-72
2021/06/28 01:26:05;;;;;;;10.13;4.43;;;13.20;99.90;;;;;;5073885;28;20211;-72
2021/06/28 01:28:33;;;;;;;15.50;4.60;;;13.10;99.90;;;;;;5073136;28;20183;-72
2021/06/28 01:31:02;;;;;;;11.90;4.23;;;13.10;99.90;;;;;;5073504;28;20190;-69
2021/06/28 01:33:30;;;;;;;10.60;4.80;;;13.10;99.90;;;;;;5073801;28;20179;-72
2021/06/28 01:35:58;;;;;;;9.87;4.57;;;13.20;99.90;;;;;;5074052;28;20179;-69
2021/06/28 01:38:26;;;;;;;9.87;4.20;;;13.20;99.90;;;;;;5073729;28;20247;-72
2021/06/28 01:40:56;;;;;;;16.80;4.47;;;13.20;99.90;;;;;;5065321;28;20676;-70
2021/06/28 01:43:24;;;;;;;8.90;4.03;;;13.20;99.90;;;;;;5054339;28;20210;-70
2021/06/28 01:45:55;;;;;;;11.33;5.13;;;13.30;99.90;;;;;;5073872;28;20658;-70
2021/06/28 01:48:23;;;;;;;9.50;4.97;;;13.30;99.90;;;;;;5073216;28;20171;-69
2021/06/28 01:50:52;;;;;;;12.27;4.97;;;13.40;99.90;;;;;;5053798;28;20184;-70
2021/06/28 01:53:19;;;;;;;12.90;5.00;;;13.50;99.90;;;;;;5059953;28;20176;-71
2021/06/28 01:55:47;;;;;;;18.93;5.40;;;13.60;99.90;;;;;;5058018;28;20673;-71
2021/06/28 01:58:17;;;;;;;14.47;5.50;;;13.70;99.90;;;;;;5060950;28;20211;-70
2021/06/28 02:00:54;;;;;;;14.90;5.33;;;13.70;99.90;;;;;;5073450;28;20704;-70
2021/06/28 02:03:24;;;;;;;14.90;5.00;;;13.80;99.90;;;;;;5073459;28;20210;-68
2021/06/28 02:05:59;;;;;;;10.23;5.30;;;14.00;99.90;;;;;;5072817;28;20182;-68
2021/06/28 02:08:30;;;;;;;14.57;5.97;;;14.20;99.90;;;;;;5073249;28;20245;-68
2021/06/28 02:11:00;;;;;;;14.50;5.43;;;14.30;99.90;;;;;;5073354;28;20167;-68
2021/06/28 02:13:34;;;;;;;11.93;5.80;;;14.20;99.90;;;;;;5073305;28;20243;-69
2021/06/28 02:16:02;;;;;;;10.90;6.40;;;14.20;99.90;;;;;;5073281;28;20210;-69
2021/06/28 02:18:30;;;;;;;11.70;5.57;;;14.20;99.90;;;;;;5070932;28;20210;-68
2021/06/28 02:20:59;;;;;;;13.37;4.70;;;14.30;99.90;;;;;;5073457;28;20634;-70
2021/06/28 02:23:39;;;;;;;8.90;4.30;;;14.20;99.90;;;;;;5072895;28;20215;-71
2021/06/28 02:26:12;;;;;;;9.80;4.47;;;14.10;99.90;;;;;;5072844;28;20179;-71
2021/06/28 02:28:42;;;;;;;16.57;8.40;;;14.10;99.90;;;;;;5058878;28;20541;-71
2021/06/28 02:31:11;;;;;;;18.80;7.30;;;14.00;99.90;;;;;;5061281;28;20575;-68
2021/06/28 02:33:41;;;;;;;13.13;7.03;;;13.90;99.90;;;;;;5071563;28;20585;-68
2021/06/28 02:36:08;;;;;;;14.27;6.17;;;13.80;99.90;;;;;;5072589;28;20710;-68
2021/06/28 02:38:37;;;;;;;14.70;4.27;;;13.80;99.90;;;;;;5072818;28;20755;-68
2021/06/28 02:41:06;;;;;;;10.97;4.07;;;13.90;99.90;;;;;;5072602;28;20175;-68
2021/06/28 02:43:35;;;;;;;11.60;4.87;;;13.90;99.90;;;;;;5072199;28;20254;-68
2021/06/28 02:46:02;;;;;;;16.90;4.73;;;13.90;99.90;;;;;;5072240;28;20538;-68
2021/06/28 02:48:30;;;;;;;13.33;6.10;;;13.90;99.90;;;;;;5072222;28;20172;-68
2021/06/28 02:50:57;;;;;;;11.90;4.50;;;13.90;99.90;;;;;;5072471;28;20183;-69
2021/06/28 02:53:25;;;;;;;14.80;4.10;;;13.80;99.90;;;;;;5053874;28;20168;-68
2021/06/28 02:55:53;;;;;;;12.47;4.57;;;13.70;99.90;;;;;;5060723;28;20167;-68
2021/06/28 02:58:21;;;;;;;15.17;4.77;;;13.70;99.90;;;;;;5070422;28;20707;-69
2021/06/28 03:00:49;;;;;;;12.47;4.53;;;13.70;99.90;;;;;;5072406;28;20221;-67
2021/06/28 03:03:17;;;;;;;15.33;4.87;;;13.80;99.90;;;;;;5072278;28;20199;-67
2021/06/28 03:05:44;;;;;;;11.80;5.13;;;13.90;99.90;;;;;;5072254;28;20505;-67
2021/06/28 03:08:11;;;;;;;18.23;6.73;;;13.80;99.90;;;;;;5071738;28;20175;-70
2021/06/28 03:10:39;;;;;;;13.33;5.70;;;13.70;99.90;;;;;;5071925;28;20177;-69
2021/06/28 03:13:08;;;;;;;13.80;6.33;;;13.60;99.90;;;;;;5068424;28;20194;-67
2021/06/28 03:15:35;;;;;;;13.53;5.37;;;13.50;99.90;;;;;;5072175;28;20183;-68
2021/06/28 03:18:02;;;;;;;12.50;5.43;;;13.60;99.90;;;;;;5071506;28;20225;-69
2021/06/28 03:20:30;;;;;;;17.97;6.03;;;13.80;99.90;;;;;;5066075;28;20189;-66
2021/06/28 03:22:57;;;;;;;16.07;5.83;;;13.70;99.90;;;;;;5052869;28;20235;-68
2021/06/28 03:25:25;;;;;;;14.60;6.03;;;13.70;99.90;;;;;;5061738;28;20598;-67
2021/06/28 03:27:52;;;;;;;24.67;6.73;;;13.70;99.90;;;;;;5052299;28;20164;-67
2021/06/28 03:30:20;;;;;;;14.80;6.20;;;13.70;99.90;;;;;;5065966;28;20179;-68
2021/06/28 03:32:47;;;;;;;12.57;5.87;;;13.60;99.90;;;;;;5071687;28;20183;-69
2021/06/28 03:35:16;;;;;;;16.27;5.80;;;13.70;99.90;;;;;;5070997;28;20255;-67
2021/06/28 03:37:44;;;;;;;12.30;5.93;;;13.70;99.90;;;;;;5052228;28;20534;-67
2021/06/28 03:40:13;;;;;;;15.83;6.03;;;13.70;99.90;;;;;;5066337;28;20179;-68
2021/06/28 03:42:41;;;;;;;16.40;5.80;;;13.70;99.90;;;;;;5067348;28;20262;-69
2021/06/28 03:45:11;;;;;;;20.93;6.07;;;13.70;99.90;;;;;;5060509;28;20596;-68
2021/06/28 03:47:39;;;;;;;13.37;6.23;;;13.70;99.90;;;;;;5073662;28;20183;-68
2021/06/28 03:50:09;;;;;;;21.33;6.37;;;13.80;99.90;;;;;;5075613;28;20184;-69
2021/06/28 03:52:37;;;;;;;16.13;5.80;;;13.80;99.90;;;;;;5072741;28;20181;-68
2021/06/28 03:55:06;;;;;;;16.33;6.23;;;13.80;99.90;;;;;;5061953;28;20322;-67
2021/06/28 03:57:34;;;;;;;18.93;5.43;;;13.70;99.90;;;;;;5075292;28;20202;-67
2021/06/28 04:00:06;;;;;;;27.07;6.93;;;13.80;99.90;;;;;;5074735;28;20556;-67
2021/06/28 04:02:39;;;;;;;16.40;5.80;;;14.00;99.90;;;;;;5067269;28;20194;-67
2021/06/28 04:05:08;;;;;;;18.67;5.30;;;14.10;99.90;;;;;;5068291;28;20202;-68
2021/06/28 04:07:36;;;;;;;15.17;5.30;;;14.10;99.90;;;;;;5074289;28;20183;-68
2021/06/28 04:10:05;;;;;;;15.97;5.30;;;14.30;99.90;;;;;;5075054;28;20218;-68
2021/06/28 04:12:33;;;;;;;15.70;4.63;;;14.30;99.90;;;;;;5074310;28;20634;-69
2021/06/28 04:15:01;;;;;;;20.43;5.20;;;14.40;99.90;;;;;;5074757;28;20176;-68
2021/06/28 04:17:28;;;;;;;19.93;4.90;;;14.70;99.90;;;;;;5072816;28;20194;-72
2021/06/28 04:19:55;;;;;;;16.73;4.17;;;15.10;99.90;;;;;;5071770;28;20175;-68
2021/06/28 04:22:23;;;;;;;12.13;3.73;;;15.60;99.90;;;;;;5074213;28;20275;-68
2021/06/28 04:24:50;;;;;;;10.27;2.60;;;16.50;99.90;;;;;;5074045;28;20673;-67
2021/06/28 04:27:18;;;;;;;8.93;4.13;;;16.60;99.90;;;;;;5074309;28;20667;-69
2021/06/28 04:29:45;;;;;;;14.03;2.30;;;16.80;99.90;;;;;;5069990;28;20179;-69
2021/06/28 04:32:13;;;;;;;11.57;2.80;;;16.50;99.90;;;;;;5075007;28;20183;-71
2021/06/28 04:34:44;;;;;;;9.47;2.33;;;16.40;99.90;;;;;;5068023;28;20171;-69
2021/06/28 04:37:11;;;;;;;11.33;2.57;;;16.20;99.90;;;;;;5074690;28;20178;-70
2021/06/28 04:39:40;;;;;;;12.63;2.77;;;15.90;99.90;;;;;;5075176;28;20241;-69
2021/06/28 04:42:08;;;;;;;10.57;2.33;;;15.80;99.90;;;;;;5074789;28;20179;-69
2021/06/28 04:44:36;;;;;;;10.40;2.13;;;16.00;99.90;;;;;;5062718;28;20266;-70
2021/06/28 04:47:04;;;;;;;11.53;2.33;;;16.20;99.90;;;;;;5068307;28;20221;-68
2021/06/28 04:49:31;;;;;;;6.83;1.63;;;16.50;99.90;;;;;;5075019;28;20183;-68
2021/06/28 04:51:59;;;;;;;13.67;2.67;;;17.20;99.90;;;;;;5074734;28;20237;-69
2021/06/28 04:54:26;;;;;;;7.50;2.30;;;17.80;99.90;;;;;;5073570;28;20175;-69
2021/06/28 04:56:53;;;;;;;5.93;2.00;;;18.20;99.90;;;;;;5064012;28;20219;-69
2021/06/28 04:59:21;;;;;;;14.47;2.77;;;18.50;99.90;;;;;;5067375;28;20229;-68
2021/06/28 05:01:48;;;;;;;12.63;2.23;;;18.60;99.90;;;;;;5067608;28;20183;-69
2021/06/28 05:04:16;;;;;;;10.43;2.10;;;18.80;99.90;;;;;;5067064;28;20223;-67
2021/06/28 05:06:43;;;;;;;8.33;2.00;;;18.90;99.90;;;;;;5074474;28;20174;-68
2021/06/28 05:09:10;;;;;;;7.87;2.13;;;18.80;99.90;;;;;;5074684;28;20266;-69
2021/06/28 05:11:38;;;;;;;6.40;1.87;;;19.10;99.90;;;;;;5074385;28;20209;-71
2021/06/28 05:14:05;;;;;;;14.67;3.37;;;19.30;99.90;;;;;;5074410;28;20240;-71
2021/06/28 05:16:33;;;;;;;8.33;1.93;;;19.30;99.90;;;;;;5074115;28;20579;-72
2021/06/28 05:19:00;;;;;;;9.53;1.97;;;19.20;99.90;;;;;;5069897;28;20233;-72
2021/06/28 05:21:27;;;;;;;13.43;3.27;;;18.70;99.90;;;;;;5074297;28;20329;-68
2021/06/28 05:23:55;;;;;;;10.90;2.67;;;18.60;99.90;;;;;;5073367;28;20203;-68
2021/06/28 05:26:23;;;;;;;9.83;1.87;;;18.50;99.90;;;;;;5073367;28;20184;-68
2021/06/28 05:28:51;;;;;;;8.60;1.90;;;18.50;99.90;;;;;;5073999;28;20551;-67
2021/06/28 05:31:18;;;;;;;5.90;1.60;;;18.00;99.90;;;;;;5072559;28;20214;-71
2021/06/28 05:33:46;;;;;;;11.20;2.27;;;17.70;99.90;;;;;;5062093;28;20231;-70
2021/06/28 05:36:13;;;;;;;8.40;1.73;;;17.30;99.90;;;;;;5065947;28;20183;-68
2021/06/28 05:38:41;;;;;;;10.57;2.43;;;16.80;99.90;;;;;;5073984;28;20262;-68
2021/06/28 05:41:11;;;;;;;10.30;2.17;;;16.70;99.90;;;;;;5073942;28;20275;-70
2021/06/28 05:43:38;;;;;;;10.27;1.73;;;16.50;99.90;;;;;;5073842;28;20205;-69
2021/06/28 05:46:06;;;;;;;11.10;1.83;;;16.30;99.90;;;;;;5072770;28;20174;-71
2021/06/28 05:48:33;;;;;;;7.70;2.20;;;16.20;99.90;;;;;;5069565;28;20660;-71
2021/06/28 05:51:01;;;;;;;11.00;2.00;;;16.00;99.90;;;;;;5073130;28;20576;-68
2021/06/28 05:53:29;;;;;;;7.53;1.70;;;16.00;99.90;;;;;;5073899;28;20195;-67
2021/06/28 05:55:58;;;;;;;11.37;2.03;;;15.90;99.90;;;;;;5053764;28;20639;-70
2021/06/28 05:58:28;;;;;;;9.10;2.37;;;15.90;99.90;;;;;;5072135;28;20227;-68
2021/06/28 06:00:59;;;;;;;5.07;2.23;;;15.90;99.90;;;;;;5065648;28;20192;-67
2021/06/28 06:03:28;;;;;;;9.03;2.43;;;15.90;99.90;;;;;;5068076;28;20207;-71
2021/06/28 06:05:55;;;;;;;7.47;2.30;;;16.00;99.90;;;;;;5069256;28;20188;-73
2021/06/28 06:08:24;;;;;;;18.57;2.93;;;16.00;99.90;;;;;;5073241;28;20203;-72
2021/06/28 06:10:57;;;;;;;14.47;2.70;;;16.00;99.90;;;;;;5073661;28;20234;-67
2021/06/28 06:13:26;;;;;;;13.17;2.07;;;15.90;99.90;;;;;;5074272;28;20170;-69
2021/06/28 06:15:54;;;;;;;14.67;2.33;;;15.90;99.90;;;;;;5071247;28;20191;-70
2021/06/28 06:18:22;;;;;;;8.83;2.43;;;15.80;99.90;;;;;;5065250;28;20179;-69
2021/06/28 06:20:49;;;;;;;9.90;1.70;;;15.70;99.90;;;;;;5073241;28;20175;-71
2021/06/28 06:23:17;;;;;;;12.13;1.87;;;15.70;99.90;;;;;;5073739;28;20237;-69
2021/06/28 06:25:46;;;;;;;10.73;2.27;;;15.60;99.90;;;;;;5073874;28;20629;-67
2021/06/28 06:28:14;;;;;;;12.23;2.17;;;15.60;99.90;;;;;;5073622;28;20569;-69
2021/06/28 06:30:42;;;;;;;10.77;2.53;;;15.50;99.90;;;;;;5073603;28;20167;-68
2021/06/28 06:33:11;;;;;;;11.80;1.80;;;15.40;99.90;;;;;;5069387;28;20266;-68
2021/06/28 06:35:39;;;;;;;7.57;1.90;;;15.40;99.90;;;;;;5055071;28;20192;-69
2021/06/28 06:38:07;;;;;;;11.20;1.87;;;15.30;99.90;;;;;;5053111;28;20187;-69
2021/06/28 06:40:35;;;;;;;7.87;1.97;;;15.20;99.90;;;;;;5068096;28;21886;-68
2021/06/28 06:43:02;;;;;;;12.13;2.47;;;15.20;99.90;;;;;;5070698;28;20183;-71
2021/06/28 06:45:30;;;;;;;13.77;6.20;;;15.10;99.90;;;;;;5072411;28;20187;-69
2021/06/28 06:47:57;;;;;;;24.83;8.53;;;15.00;99.90;;;;;;5071818;28;20172;-69
2021/06/28 06:50:25;;;;;;;17.97;5.60;;;14.90;99.90;;;;;;5069787;28;20211;-69
2021/06/28 06:52:52;;;;;;;15.53;2.97;;;14.90;99.90;;;;;;5071665;28;20228;-70
2021/06/28 06:55:21;;;;;;;10.70;2.10;;;14.70;99.90;;;;;;5071486;28;20189;-69
2021/06/28 06:57:48;;;;;;;9.80;2.10;;;14.60;99.90;;;;;;5070895;28;20589;-68
2021/06/28 07:00:19;;;;;;;7.03;1.80;;;14.60;99.90;;;;;;5069873;28;20310;-68
2021/06/28 07:02:49;;;;;;;12.70;2.10;;;14.50;99.90;;;;;;5071100;28;20171;-68
2021/06/28 07:05:18;;;;;;;15.07;2.70;;;14.40;99.90;;;;;;5069147;28;20217;-68
2021/06/28 07:07:46;;;;;;;15.20;3.10;;;14.30;99.90;;;;;;5071336;28;20172;-71
2021/06/28 07:10:16;;;;;;;7.93;2.10;;;14.30;99.90;;;;;;5071922;28;20205;-68
2021/06/28 07:12:44;;;;;;;8.63;2.00;;;14.20;99.90;;;;;;5068521;28;20173;-68
2021/06/28 07:15:14;;;;;;;14.50;2.67;;;14.20;99.90;;;;;;5070233;28;20661;-69
2021/06/28 07:17:42;;;;;;;9.53;2.30;;;14.10;99.90;;;;;;5071961;28;20516;-67
2021/06/28 07:20:12;;;;;;;12.53;3.53;;;14.10;99.90;;;;;;5069309;28;20731;-69
2021/06/28 07:22:39;;;;;;;14.57;4.63;;;14.10;99.90;;;;;;5067844;28;20189;-70
2021/06/28 07:25:12;;;;;;;11.37;4.03;;;14.00;99.90;;;;;;5072269;28;20214;-67
2021/06/28 07:27:39;;;;;;;10.17;2.43;;;14.00;99.90;;;;;;5053679;28;20172;-69
2021/06/28 07:30:10;;;;;;;6.30;2.17;;;14.00;99.90;;;;;;5070665;28;20261;-72
2021/06/28 07:32:38;;;;;;;14.20;2.70;;;14.00;99.90;;;;;;5071960;28;20197;-66
2021/06/28 07:35:07;;;;;;;6.53;1.93;;;13.90;99.90;;;;;;5059803;28;20202;-70
2021/06/28 07:37:35;;;;;;;10.30;2.40;;;13.90;99.90;;;;;;5071171;28;20194;-67
2021/06/28 07:40:03;;;;;;;13.60;2.17;;;13.90;99.90;;;;;;5060235;28;20638;-68
2021/06/28 07:42:31;;;;;;;6.60;2.30;;;13.80;99.90;;;;;;5061442;28;20187;-68
2021/06/28 07:44:59;;;;;;;13.17;1.90;;;13.80;99.90;;;;;;5060239;28;20218;-69
2021/06/28 07:47:26;;;;;;;8.07;2.17;;;13.80;99.90;;;;;;5071542;28;20184;-69
2021/06/28 07:49:54;;;;;;;9.23;2.97;;;13.80;99.90;;;;;;5071801;28;20184;-68
2021/06/28 07:52:21;;;;;;;18.27;2.57;;;13.70;99.90;;;;;;5071664;28;20520;-70
2021/06/28 07:54:48;;;;;;;10.90;2.40;;;13.70;99.90;;;;;;5071159;28;20191;-67
2021/06/28 07:57:16;;;;;;;8.30;2.40;;;13.70;99.90;;;;;;5071108;28;20638;-72
2021/06/28 07:59:43;;;;;;;13.57;2.77;;;13.70;99.90;;;;;;5070663;28;20223;-71
2021/06/28 08:02:11;;;;;;;13.13;2.57;;;13.70;99.90;;;;;;5067998;28;20183;-72
2021/06/28 08:04:38;;;;;;;8.00;2.23;;;13.70;99.90;;;;;;5070642;28;20215;-70
2021/06/28 08:07:05;;;;;;;12.93;2.73;;;13.70;99.90;;;;;;5071522;28;20183;-73
2021/06/28 08:09:33;;;;;;;7.87;2.47;;;13.70;99.90;;;;;;5070112;28;20179;-67
2021/06/28 08:12:00;;;;;;;10.47;2.33;;;13.70;99.90;;;;;;5070786;28;20207;-66
2021/06/28 08:14:28;;;;;;;13.37;2.53;;;13.60;99.90;;;;;;5070626;28;20179;-67
2021/06/28 08:16:55;;;;;;;14.43;3.80;;;13.60;99.90;;;;;;5071114;28;20259;-70
2021/06/28 08:19:22;;;;;;;12.30;4.43;;;13.50;99.90;;;;;;5071756;28;20538;-67
2021/06/28 08:21:51;;;;;;;18.70;6.77;;;13.50;99.90;;;;;;5071739;28;20172;-69
2021/06/28 08:24:19;;;;;;;22.17;10.43;;;13.40;99.90;;;;;;5071371;28;20298;-66
2021/06/28 08:26:46;;;;;;;25.00;13.20;;;13.40;99.90;;;;;;5070255;28;20545;-67
2021/06/28 08:29:14;;;;;;;26.17;11.43;;;13.40;99.90;;;;;;5071619;28;20187;-66
2021/06/28 08:31:41;;;;;;;12.40;5.23;;;13.40;99.90;;;;;;5072838;28;20716;-66
2021/06/28 08:34:09;;;;;;;12.50;3.60;;;13.40;99.90;;;;;;5070904;28;20179;-67
2021/06/28 08:36:36;;;;;;;10.30;2.80;;;13.40;99.90;;;;;;5070586;28;20679;-67
2021/06/28 08:39:06;;;;;;;9.93;2.53;;;13.40;99.90;;;;;;5071701;28;20666;-66
2021/06/28 08:41:35;;;;;;;9.30;2.93;;;13.40;99.90;;;;;;5074062;28;20657;-68
2021/06/28 08:44:02;;;;;;;8.67;2.80;;;13.40;99.90;;;;;;5073977;28;20249;-68
2021/06/28 08:46:30;;;;;;;7.30;2.17;;;13.40;99.90;;;;;;5073825;28;20188;-68
2021/06/28 08:48:57;;;;;;;13.10;2.50;;;13.40;99.90;;;;;;5072414;28;20178;-67
2021/06/28 08:51:25;;;;;;;16.07;2.40;;;13.30;99.90;;;;;;5074591;28;20225;-67
2021/06/28 08:53:54;;;;;;;11.10;2.03;;;13.30;99.90;;;;;;5074631;28;20593;-67
2021/06/28 08:56:22;;;;;;;7.07;2.00;;;13.30;99.90;;;;;;5073532;28;20180;-67
2021/06/28 08:58:50;;;;;;;10.70;2.37;;;13.30;99.90;;;;;;5073689;28;20219;-69
2021/06/28 09:01:17;;;;;;;15.37;2.30;;;13.20;99.90;;;;;;5074401;28;20545;-67
2021/06/28 09:03:46;;;;;;;11.10;2.50;;;13.20;99.90;;;;;;5066572;28;20220;-67
2021/06/28 09:06:16;;;;;;;10.60;2.97;;;13.30;99.90;;;;;;5071816;28;20180;-68
2021/06/28 09:09:09;;;;;;;9.33;2.87;;;13.20;99.90;;;;;;5073119;28;20175;-67
2021/06/28 09:11:45;;;;;;;14.30;7.37;;;13.20;99.90;;;;;;5073664;28;20180;-70
2021/06/28 09:14:14;;;;;;;15.87;8.13;;;13.10;99.90;;;;;;5074639;28;20711;-68
2021/06/28 09:16:45;;;;;;;13.27;5.20;;;13.00;99.90;;;;;;5074176;28;20695;-68
2021/06/28 09:19:16;;;;;;;8.67;2.93;;;13.00;99.90;;;;;;5073627;28;20195;-69
2021/06/28 09:21:53;;;;;;;13.47;2.90;;;12.90;99.90;;;;;;5070731;28;20642;-68
2021/06/28 09:24:27;;;;;;;12.17;2.93;;;12.90;99.90;;;;;;5065394;28;20219;-67
2021/06/28 09:26:56;;;;;;;7.67;2.97;;;12.80;99.90;;;;;;5069191;28;20188;-69
2021/06/28 09:29:35;;;;;;;12.73;2.73;;;12.80;99.90;;;;;;5065791;28;20184;-68
2021/06/28 09:32:13;;;;;;;9.33;2.77;;;12.70;99.90;;;;;;5072556;28;20187;-69
2021/06/28 09:34:45;;;;;;;8.73;2.40;;;12.70;99.90;;;;;;5066515;28;20190;-68
2021/06/28 09:37:14;;;;;;;10.10;3.30;;;12.60;99.90;;;;;;5073355;28;20198;-71
2021/06/28 09:39:43;;;;;;;8.83;2.60;;;12.60;99.90;;;;;;5061116;28;20175;-67
2021/06/28 09:42:12;;;;;;;9.93;3.43;;;12.50;99.90;;;;;;5072358;28;20241;-67
2021/06/28 09:45:02;;;;;;;13.97;3.60;;;12.50;99.90;;;;;;5072860;28;20241;-67
2021/06/28 09:47:32;;;;;;;12.20;4.00;;;12.40;99.90;;;;;;5072799;28;20184;-66
2021/06/28 09:50:08;;;;;;;25.60;12.23;;;12.50;99.90;;;;;;5073162;28;20180;-66
2021/06/28 09:52:43;;;;;;;28.57;15.80;;;12.40;99.90;;;;;;5071121;28;20179;-68
2021/06/28 09:55:21;;;;;;;15.33;8.43;;;12.30;99.90;;;;;;5072365;28;20641;-69
2021/06/28 09:58:09;;;;;;;18.83;7.90;;;12.20;99.90;;;;;;5072286;28;20194;-67
2021/06/28 10:00:48;;;;;;;14.43;7.13;;;12.20;99.90;;;;;;5072890;28;20206;-69
2021/06/28 10:03:51;;;;;;;16.80;6.37;;;12.20;99.90;;;;;;5072386;28;20689;-67
2021/06/28 10:09:07;;;;;;;21.43;6.37;;;12.10;99.90;;;;;;5072872;28;20179;-67
2021/06/28 10:11:42;;;;;;;16.83;6.73;;;12.10;99.90;;;;;;5072744;28;20706;-67
2021/06/28 10:14:09;;;;;;;15.57;5.97;;;12.10;99.90;;;;;;5072865;28;20274;-69
2021/06/28 10:16:39;;;;;;;16.27;6.07;;;12.10;99.90;;;;;;5072699;28;20661;-68
2021/06/28 10:19:09;;;;;;;13.73;5.57;;;12.10;99.90;;;;;;5072116;28;20190;-71
2021/06/28 10:21:38;;;;;;;12.10;5.67;;;12.00;99.90;;;;;;5070205;28;20175;-69
2021/06/28 10:24:09;;;;;;;12.70;4.47;;;12.10;99.90;;;;;;5070101;28;20268;-69
2021/06/28 10:26:36;;;;;;;14.30;4.57;;;12.00;99.90;;;;;;5072114;28;20584;-68
2021/06/28 10:29:04;;;;;;;15.63;6.27;;;12.00;99.90;;;;;;5072701;28;20201;-67
2021/06/28 10:31:32;;;;;;;18.87;5.80;;;12.00;99.90;;;;;;5072320;28;20179;-67
2021/06/28 10:34:02;;;;;;;16.53;5.47;;;12.00;99.90;;;;;;5072508;28;20183;-68
2021/06/28 10:36:39;;;;;;;18.80;6.23;;;12.00;99.90;;;;;;5072393;28;20230;-67
2021/06/28 10:39:11;;;;;;;14.77;4.77;;;11.90;99.90;;;;;;5056977;28;20176;-70
2021/06/28 10:41:52;;;;;;;12.60;4.23;;;11.90;99.90;;;;;;5068524;28;20183;-67
2021/06/28 10:44:20;;;;;;;12.53;4.27;;;11.80;99.90;;;;;;5072078;28;20235;-73
2021/06/28 10:46:51;;;;;;;13.07;4.03;;;11.80;99.90;;;;;;5072898;28;20263;-75
2021/06/28 10:49:45;;;;;;;18.70;4.30;;;11.80;99.90;;;;;;5071705;28;20223;-74
2021/06/28 10:52:33;;;;;;;9.57;4.10;;;11.80;99.90;;;;;;5071988;28;20266;-73
2021/06/28 10:55:20;;;;;;;12.10;4.13;;;11.80;99.90;;;;;;5060484;28;20187;-75
2021/06/28 10:57:49;;;;;;;12.10;3.33;;;11.90;99.90;;;;;;5071236;28;20184;-73
2021/06/28 11:00:17;;;;;;;9.27;3.33;;;11.90;99.90;;;;;;5072792;28;20221;-75
2021/06/28 11:02:44;;;;;;;17.77;4.13;;;11.90;99.90;;;;;;5072546;28;20189;-71
2021/06/28 11:05:14;;;;;;;18.17;3.83;;;11.90;99.90;;;;;;5071831;28;20214;-74
2021/06/28 11:07:48;;;;;;;11.50;3.33;;;12.00;99.90;;;;;;5072602;28;20225;-72
2021/06/28 11:10:38;;;;;;;19.70;4.13;;;12.00;99.90;;;;;;5072580;28;20544;-68
2021/06/28 11:13:40;;;;;;;19.90;3.93;;;12.00;99.90;;;;;;5073298;28;20170;-72
2021/06/28 11:16:30;;;;;;;14.70;4.07;;;12.00;99.90;;;;;;5065588;28;20186;-73
2021/06/28 11:18:57;;;;;;;15.43;3.77;;;12.10;99.90;;;;;;5060814;28;20238;-72
2021/06/28 11:21:57;;;;;;;15.57;4.47;;;12.10;99.90;;;;;;5071574;28;20661;-74
2021/06/28 11:24:31;;;;;;;11.47;3.43;;;12.20;99.90;;;;;;5029639;28;20219;-71
2021/06/28 11:27:18;;;;;;;18.23;3.63;;;12.20;99.90;;;;;;5072368;28;20174;-67
2021/06/28 11:29:51;;;;;;;14.17;4.07;;;12.30;99.90;;;;;;5072251;28;20194;-70
2021/06/28 11:32:26;;;;;;;10.97;3.83;;;12.30;99.90;;;;;;5071284;28;20289;-68
2021/06/28 11:34:55;;;;;;;11.70;4.00;;;12.30;99.90;;;;;;5071204;28;20186;-70
2021/06/28 11:37:23;;;;;;;11.47;3.97;;;12.40;99.90;;;;;;5062892;28;20517;-67
2021/06/28 11:39:58;;;;;;;18.43;5.37;;;12.40;99.90;;;;;;5062395;28;20197;-69
2021/06/28 11:42:29;;;;;;;16.10;5.13;;;12.30;99.90;;;;;;5070450;28;20260;-69
2021/06/28 11:45:12;;;;;;;16.63;5.20;;;12.30;99.90;;;;;;5071479;28;20215;-72
2021/06/28 11:47:46;;;;;;;14.87;6.13;;;12.20;99.90;;;;;;5070760;28;20270;-71
2021/06/28 11:50:26;;;;;;;15.00;7.43;;;12.20;99.90;;;;;;5067051;28;20187;-66
2021/06/28 11:53:03;;;;;;;17.73;7.73;;;12.10;99.90;;;;;;5069845;28;20183;-67
2021/06/28 11:55:33;;;;;;;22.20;7.70;;;12.10;99.90;;;;;;5067492;28;20197;-69
2021/06/28 11:58:01;;;;;;;19.50;7.93;;;12.10;99.90;;;;;;5069232;28;20191;-68
2021/06/28 12:00:29;;;;;;;20.03;7.70;;;12.10;99.90;;;;;;5071245;28;20191;-69
2021/06/28 12:03:24;;;;;;;24.60;8.13;;;12.10;99.90;;;;;;5071590;28;20191;-67
2021/06/28 12:05:52;;;;;;;17.23;8.03;;;12.00;99.90;;;;;;5069144;28;20281;-67
2021/06/28 12:08:27;;;;;;;28.33;8.40;;;12.00;99.90;;;;;;5066413;28;20187;-67
2021/06/28 12:11:00;;;;;;;19.83;7.83;;;11.90;99.90;;;;;;5073139;28;20276;-70
2021/06/28 12:13:51;;;;;;;19.70;7.83;;;11.90;99.90;;;;;;5067364;28;20587;-71
2021/06/28 12:16:26;;;;;;;19.87;8.27;;;11.80;99.90;;;;;;5072180;28;20183;-67
2021/06/28 12:19:08;;;;;;;13.67;7.90;;;11.80;99.90;;;;;;5073493;28;20197;-67
2021/06/28 12:21:41;;;;;;;23.83;9.03;;;11.70;99.90;;;;;;5069741;28;20189;-69
2021/06/28 12:24:16;;;;;;;14.63;7.93;;;11.60;99.90;;;;;;5073186;28;20218;-68
2021/06/28 12:27:03;;;;;;;23.43;9.10;;;11.50;99.90;;;;;;5074972;28;20261;-67
2021/06/28 12:29:39;;;;;;;22.80;10.33;;;11.50;99.90;;;;;;5072195;28;20178;-67
2021/06/28 12:32:27;;;;;;;26.37;10.20;;;11.40;99.90;;;;;;5072759;28;20678;-67
2021/06/28 12:34:55;;;;;;;19.33;9.20;;;11.30;99.90;;;;;;5071399;28;20279;-68
2021/06/28 12:37:31;;;;;;;24.03;8.50;;;11.30;99.90;;;;;;5074201;28;20637;-68
2021/06/28 12:40:15;;;;;;;18.13;7.20;;;11.20;99.90;;;;;;5071924;28;21017;-67
2021/06/28 12:42:46;;;;;;;14.37;6.97;;;11.20;99.90;;;;;;5070809;28;20182;-69
2021/06/28 12:45:16;;;;;;;21.40;6.27;;;11.20;99.90;;;;;;5074224;28;20301;-67
2021/06/28 12:47:49;;;;;;;22.03;7.67;;;11.10;99.90;;;;;;5074374;28;20189;-66
2021/06/28 12:50:20;;;;;;;19.73;6.73;;;11.10;99.90;;;;;;5065288;28;20656;-68
2021/06/28 12:52:48;;;;;;;27.10;7.33;;;11.10;99.90;;;;;;5071061;28;20180;-68
2021/06/28 12:55:26;;;;;;;22.13;6.67;;;11.00;99.90;;;;;;5064895;28;20668;-66
2021/06/28 12:58:11;;;;;;;17.93;6.20;;;11.00;99.90;;;;;;5071568;28;20190;-66